Terminal Aerodrome Forecast
Issued by NWS Austin/San Antonio, TX

Home | Current Version | Previous Version | Text Only | Print | Product List | Glossary On
Versions: 1 2 3 4 5 6 7 8 9 10 11 12 13 14 15 16 17 18 19 20 21 22 23 24
000
FTUS44 KEWX 271737
TAFAUS
TAF
KAUS 271737Z 2718/2824 18015KT P6SM BKN023 OVC035
     FM272000 18012KT P6SM BKN035
     FM280200 18008KT P6SM OVC022
     FM280600 18007KT P6SM OVC015
     FM280900 18008KT 1SM BR OVC006
     FM281600 18010KT P6SM OVC012
     FM282000 19014KT P6SM BKN035=

USA.gov is the U.S. government's official web portal to all federal, state and local government web resources and services.